Time;durP1;ratioP1;P1;durP2;ratioP2;P2;SDS_P1;SDS_P2;PMS_P1;PMS_P2;Temp;Humidity;BMP_temperature;BMP_pressure;BME280_temperature;BME280_humidity;BME280_pressure;Samples;Min_cycle;Max_cycle;Signal;HPM_P1;HPM_P2
2023/05/23 00:00:39;;;;;;;47.90;34.40;;;;;;;21.50;69.37;100421.34;4867583;29;20222;-74
2023/05/23 00:03:07;;;;;;;51.97;35.23;;;;;;;21.50;69.42;100424.03;4865937;29;20247;-75
2023/05/23 00:05:35;;;;;;;53.93;33.97;;;;;;;21.48;69.21;100418.03;4865160;29;20828;-74
2023/05/23 00:08:03;;;;;;;47.03;32.10;;;;;;;21.39;69.66;100410.22;4862956;29;20338;-74
2023/05/23 00:10:32;;;;;;;43.47;31.53;;;;;;;21.42;69.49;100413.53;4864803;29;20780;-75
2023/05/23 00:13:01;;;;;;;47.87;31.33;;;;;;;21.42;69.47;100402.75;4865288;29;20242;-75
2023/05/23 00:15:29;;;;;;;43.73;31.77;;;;;;;21.36;69.37;100407.97;4865801;29;20242;-75
2023/05/23 00:17:58;;;;;;;43.43;30.90;;;;;;;21.34;69.59;100410.06;4863291;29;20215;-76
2023/05/23 00:20:27;;;;;;;42.27;30.27;;;;;;;21.31;69.54;100410.50;4863866;29;20241;-75
2023/05/23 00:22:57;;;;;;;41.57;30.67;;;;;;;21.33;69.46;100407.59;4862873;29;20347;-75
2023/05/23 00:25:33;;;;;;;42.67;29.83;;;;;;;21.29;69.84;100412.56;4859889;29;20222;-76
2023/05/23 00:28:02;;;;;;;41.57;30.37;;;;;;;21.26;69.58;100410.34;4857168;29;20317;-74
2023/05/23 00:30:31;;;;;;;41.73;29.47;;;;;;;21.29;69.67;100415.28;4863313;29;20223;-75
2023/05/23 00:32:59;;;;;;;44.33;31.30;;;;;;;21.36;69.16;100421.47;4864411;29;20950;-74
2023/05/23 00:35:27;;;;;;;45.80;30.87;;;;;;;21.28;69.77;100413.66;4865046;29;20637;-74
2023/05/23 00:37:56;;;;;;;44.63;29.80;;;;;;;21.26;69.60;100413.03;4864059;29;20791;-75
2023/05/23 00:40:23;;;;;;;45.30;30.53;;;;;;;21.28;69.61;100413.66;4862545;29;20305;-75
2023/05/23 00:42:51;;;;;;;40.00;30.40;;;;;;;21.23;69.50;100413.47;4865501;29;20226;-75
2023/05/23 00:45:20;;;;;;;40.23;30.03;;;;;;;21.26;69.35;100409.50;4866120;29;20215;-75
2023/05/23 00:47:50;;;;;;;40.47;29.43;;;;;;;21.21;69.67;100410.16;4866108;29;20286;-75
2023/05/23 00:50:18;;;;;;;43.47;31.33;;;;;;;21.19;69.70;100409.56;4863588;29;20223;-75
2023/05/23 00:52:48;;;;;;;39.87;29.43;;;;;;;21.18;70.02;100407.91;4864936;29;20265;-75
2023/05/23 00:55:15;;;;;;;38.03;29.70;;;;;;;21.15;70.11;100413.69;4863315;29;20210;-75
2023/05/23 00:57:44;;;;;;;39.57;28.63;;;;;;;21.21;69.57;100414.72;4866137;29;20688;-75
2023/05/23 01:00:14;;;;;;;37.77;27.50;;;;;;;21.10;70.11;100418.94;4865066;29;20293;-75
2023/05/23 01:02:45;;;;;;;39.63;28.77;;;;;;;21.10;70.22;100418.94;4868332;29;20297;-75
2023/05/23 01:05:16;;;;;;;37.23;28.33;;;;;;;21.14;70.05;100424.69;4868204;29;20221;-76
2023/05/23 01:07:44;;;;;;;38.07;27.87;;;;;;;21.11;70.10;100419.75;4869356;29;20315;-75
2023/05/23 01:10:13;;;;;;;37.50;27.70;;;;;;;21.02;70.57;100420.00;4870452;29;20322;-76
2023/05/23 01:12:53;;;;;;;37.37;28.83;;;;;;;21.04;70.41;100427.88;4871949;29;20247;-76
2023/05/23 01:15:27;;;;;;;43.30;30.10;;;;;;;21.04;70.64;100419.78;4871752;29;20214;-75
2023/05/23 01:18:02;;;;;;;37.87;29.57;;;;;;;21.00;70.48;100421.28;4872791;29;20244;-75
2023/05/23 01:20:35;;;;;;;39.13;28.33;;;;;;;20.98;70.74;100421.50;4882215;29;20274;-75
2023/05/23 01:23:58;;;;;;;39.17;26.87;;;;;;;20.98;70.44;100415.28;4864244;29;20250;-76
2023/05/23 01:26:41;;;;;;;37.00;27.80;;;;;;;20.91;70.61;100418.03;4819015;29;20275;-77
2023/05/23 01:29:17;;;;;;;36.57;28.17;;;;;;;20.94;70.47;100419.44;4816044;29;20711;-75
2023/05/23 01:31:46;;;;;;;36.07;28.00;;;;;;;21.02;70.22;100429.97;4844946;29;20221;-76
2023/05/23 01:34:15;;;;;;;36.20;27.13;;;;;;;21.01;69.97;100425.63;4862739;29;21084;-75
2023/05/23 01:36:43;;;;;;;34.83;27.30;;;;;;;21.03;69.95;100424.34;4862739;29;20214;-76
2023/05/23 01:39:11;;;;;;;39.33;28.50;;;;;;;20.97;70.13;100435.19;4865260;29;20218;-74
2023/05/23 01:41:39;;;;;;;35.47;28.33;;;;;;;21.02;70.05;100429.97;4865537;29;20249;-75
2023/05/23 01:44:07;;;;;;;33.67;27.70;;;;;;;20.98;70.06;100442.22;4861851;29;20223;-75
2023/05/23 01:46:38;;;;;;;38.50;27.77;;;;;;;21.00;69.76;100440.16;4863323;29;20254;-74
2023/05/23 01:49:11;;;;;;;41.50;29.00;;;;;;;20.94;70.22;100455.31;4862768;29;20300;-75
2023/05/23 01:51:39;;;;;;;36.70;28.73;;;;;;;20.92;70.42;100440.41;4861961;29;20294;-74
2023/05/23 01:54:10;;;;;;;39.67;29.13;;;;;;;20.93;70.07;100440.16;4863550;29;20238;-74
2023/05/23 01:56:38;;;;;;;37.53;30.27;;;;;;;20.97;70.04;100443.25;4861704;29;20336;-74
2023/05/23 01:59:05;;;;;;;40.33;31.97;;;;;;;20.89;70.09;100448.91;4861878;29;20229;-74
2023/05/23 02:01:34;;;;;;;38.53;31.67;;;;;;;20.88;70.39;100447.25;4864403;29;20936;-75
2023/05/23 02:04:04;;;;;;;42.00;31.03;;;;;;;20.91;69.95;100446.84;4860223;29;20258;-75
2023/05/23 02:06:32;;;;;;;43.53;31.83;;;;;;;20.91;70.10;100446.84;4865681;29;20228;-76
2023/05/23 02:08:59;;;;;;;42.43;33.30;;;;;;;20.85;70.50;100443.13;4863576;29;20332;-75
2023/05/23 02:11:27;;;;;;;42.70;31.67;;;;;;;20.82;70.52;100437.34;4862630;29;20251;-74
2023/05/23 02:13:55;;;;;;;40.97;31.57;;;;;;;20.82;70.53;100445.44;4865272;29;21039;-75
2023/05/23 02:16:24;;;;;;;43.13;31.87;;;;;;;20.80;70.91;100445.66;4863064;29;21035;-75
2023/05/23 02:18:55;;;;;;;44.73;31.87;;;;;;;20.79;70.83;100448.53;4861629;29;20729;-75
2023/05/23 02:21:24;;;;;;;45.67;34.13;;;;;;;20.75;70.81;100458.13;4861367;29;20984;-75
2023/05/23 02:23:52;;;;;;;43.27;33.83;;;;;;;20.76;70.93;100459.78;4861857;29;20736;-75
2023/05/23 02:26:20;;;;;;;41.60;30.37;;;;;;;20.73;70.79;100461.03;4861411;29;20313;-75
2023/05/23 02:28:48;;;;;;;48.33;33.73;;;;;;;20.74;70.53;100473.47;4863421;29;20709;-75
2023/05/23 02:31:16;;;;;;;41.90;30.10;;;;;;;20.71;70.82;100473.88;4864389;29;20226;-75
2023/05/23 02:33:44;;;;;;;38.57;29.00;;;;;;;20.75;70.62;100474.28;4862760;29;20294;-75
2023/05/23 02:36:12;;;;;;;37.73;28.07;;;;;;;20.71;70.55;100478.44;4862314;29;20258;-75
2023/05/23 02:38:41;;;;;;;40.33;28.83;;;;;;;20.69;70.62;100480.50;4862530;29;20300;-75
2023/05/23 02:41:09;;;;;;;35.50;26.20;;;;;;;20.73;70.28;100487.13;4860562;29;20245;-74
2023/05/23 02:43:38;;;;;;;40.17;29.03;;;;;;;20.77;69.89;100496.44;4861168;29;20776;-75
2023/05/23 02:46:05;;;;;;;36.47;27.43;;;;;;;20.76;69.54;100498.31;4860514;29;20266;-75
2023/05/23 02:48:33;;;;;;;36.13;29.20;;;;;;;20.71;69.74;100497.31;4861259;29;20233;-75
2023/05/23 02:51:01;;;;;;;36.40;26.83;;;;;;;20.70;69.70;100511.81;4859902;29;20297;-75
2023/05/23 02:53:29;;;;;;;34.67;26.17;;;;;;;20.71;69.25;100516.16;4864054;29;20217;-76
2023/05/23 02:55:58;;;;;;;30.97;24.70;;;;;;;20.68;69.10;100514.72;4861019;29;20707;-75
2023/05/23 02:58:26;;;;;;;35.90;26.93;;;;;;;20.64;69.18;100511.63;4864100;29;20290;-76
2023/05/23 03:00:54;;;;;;;33.00;25.83;;;;;;;20.65;68.91;100517.84;4856004;29;20293;-76
2023/05/23 03:03:22;;;;;;;35.87;26.40;;;;;;;20.65;69.11;100520.53;4859270;29;20220;-76
2023/05/23 03:05:50;;;;;;;38.13;27.20;;;;;;;20.60;68.56;100514.94;4860862;29;20672;-75
2023/05/23 03:08:18;;;;;;;34.30;26.37;;;;;;;20.58;68.77;100517.06;4861692;29;20222;-76
2023/05/23 03:10:46;;;;;;;35.37;26.67;;;;;;;20.56;68.85;100519.94;4862247;29;20218;-75
2023/05/23 03:13:15;;;;;;;36.97;26.90;;;;;;;20.64;68.26;100518.88;4861251;29;20223;-75
2023/05/23 03:15:42;;;;;;;35.07;26.50;;;;;;;20.54;68.24;100522.03;4860431;29;20237;-76
2023/05/23 03:18:11;;;;;;;32.97;25.93;;;;;;;20.53;67.99;100514.16;4860727;29;20756;-75
2023/05/23 03:20:39;;;;;;;35.50;26.17;;;;;;;20.56;68.00;100525.34;4861533;29;20741;-67
2023/05/23 03:23:07;;;;;;;35.08;28.77;;;;;;;21.27;64.33;100522.56;4861571;29;20990;-67
2023/05/23 03:25:35;;;;;;;31.47;25.63;;;;;;;20.93;65.74;100517.53;4860673;29;20222;-67
2023/05/23 03:28:03;;;;;;;31.90;25.47;;;;;;;20.87;66.25;100521.91;4857393;29;20749;-67
2023/05/23 03:30:32;;;;;;;36.87;27.20;;;;;;;20.86;66.40;100522.09;4858232;29;20218;-66
2023/05/23 03:33:00;;;;;;;37.43;28.23;;;;;;;20.78;66.31;100522.34;4861975;29;20243;-66
2023/05/23 03:35:28;;;;;;;35.50;27.97;;;;;;;20.82;66.02;100529.81;4862151;29;20651;-65
2023/05/23 03:37:56;;;;;;;36.50;26.93;;;;;;;20.83;65.69;100525.25;4861835;29;20221;-67
2023/05/23 03:40:24;;;;;;;33.97;25.63;;;;;;;20.76;65.81;100535.22;4858214;29;20275;-71
2023/05/23 03:43:02;;;;;;;34.33;26.23;;;;;;;20.70;65.35;100528.81;4856541;29;20687;-67
2023/05/23 03:45:32;;;;;;;41.40;27.90;;;;;;;20.67;65.40;100535.44;4854734;29;20233;-67
2023/05/23 03:48:00;;;;;;;40.10;26.73;;;;;;;20.74;65.02;100537.31;4856503;29;20211;-68
2023/05/23 03:50:28;;;;;;;33.97;25.87;;;;;;;20.67;65.41;100535.44;4859293;29;20215;-67
2023/05/23 03:52:56;;;;;;;31.30;24.47;;;;;;;20.61;65.07;100536.28;4856751;29;20793;-68
2023/05/23 03:55:24;;;;;;;27.33;22.87;;;;;;;20.47;65.40;100537.38;4856657;29;21019;-66
2023/05/23 03:57:52;;;;;;;32.60;25.63;;;;;;;20.50;64.48;100531.56;4857969;29;20311;-67
2023/05/23 04:00:20;;;;;;;28.30;24.63;;;;;;;20.48;64.76;100533.66;4857775;29;20271;-67
2023/05/23 04:02:50;;;;;;;31.77;24.67;;;;;;;20.33;64.85;100530.31;4860006;29;20908;-67
2023/05/23 04:05:18;;;;;;;30.43;23.17;;;;;;;20.28;65.18;100538.22;4852123;29;20693;-68
2023/05/23 04:07:46;;;;;;;31.23;24.87;;;;;;;20.32;65.08;100534.03;4858942;29;20215;-67
2023/05/23 04:10:14;;;;;;;31.37;23.50;;;;;;;20.25;64.83;100536.75;4860417;29;20310;-67
2023/05/23 04:12:42;;;;;;;28.53;23.87;;;;;;;20.29;64.74;100535.31;4861336;29;20227;-67
2023/05/23 04:15:10;;;;;;;31.93;23.50;;;;;;;20.12;65.41;100546.72;4864434;29;20258;-68
2023/05/23 04:17:38;;;;;;;28.20;23.13;;;;;;;20.18;65.24;100541.31;4865748;29;20324;-67
2023/05/23 04:20:09;;;;;;;31.53;23.83;;;;;;;20.15;65.16;100548.97;4866730;29;20218;-67
2023/05/23 04:22:37;;;;;;;33.43;25.70;;;;;;;20.16;65.29;100551.47;4864163;29;20784;-68
2023/05/23 04:25:06;;;;;;;31.10;24.00;;;;;;;20.18;65.06;100554.78;4865940;29;20923;-67
2023/05/23 04:27:34;;;;;;;29.70;24.27;;;;;;;20.20;64.73;100562.66;4862390;29;20250;-67
2023/05/23 04:30:08;;;;;;;31.93;23.07;;;;;;;20.07;65.19;100560.78;4863370;29;20703;-67
2023/05/23 04:32:36;;;;;;;31.37;23.57;;;;;;;20.10;65.20;100563.09;4864271;29;20242;-67
2023/05/23 04:35:04;;;;;;;28.83;21.57;;;;;;;20.17;64.90;100569.28;4864953;29;20502;-67
2023/05/23 04:37:34;;;;;;;24.63;19.87;;;;;;;20.08;64.65;100569.69;4863154;29;20219;-66
2023/05/23 04:40:02;;;;;;;24.57;19.30;;;;;;;20.02;64.84;100565.16;4864863;29;20277;-65
2023/05/23 04:42:32;;;;;;;25.23;19.47;;;;;;;20.04;64.71;100573.84;4864268;29;20215;-67
2023/05/23 04:45:01;;;;;;;26.27;20.83;;;;;;;20.04;64.79;100580.06;4865231;29;20214;-72
2023/05/23 04:47:33;;;;;;;25.07;18.93;;;;;;;20.13;64.20;100575.31;4867856;29;20222;-66
2023/05/23 04:50:04;;;;;;;28.73;19.07;;;;;;;20.12;64.46;100581.72;4863343;29;20218;-68
2023/05/23 04:52:33;;;;;;;25.03;19.40;;;;;;;19.98;64.43;100580.03;4864866;29;20672;-68
2023/05/23 04:55:01;;;;;;;26.77;20.37;;;;;;;20.00;63.76;100583.38;4865525;29;20245;-69
2023/05/23 04:57:29;;;;;;;21.77;18.30;;;;;;;19.87;64.33;100590.41;4864261;29;20725;-68
2023/05/23 04:59:57;;;;;;;23.77;19.33;;;;;;;19.98;63.46;100585.44;4863129;29;20302;-68
2023/05/23 05:02:25;;;;;;;24.57;19.43;;;;;;;19.90;63.58;100586.47;4864081;29;20306;-68
2023/05/23 05:04:53;;;;;;;23.40;18.70;;;;;;;19.98;63.14;100596.19;4865058;29;20971;-68
2023/05/23 05:07:21;;;;;;;20.80;17.23;;;;;;;19.91;63.08;100601.56;4864571;29;20789;-67
2023/05/23 05:09:50;;;;;;;21.80;17.23;;;;;;;19.91;62.67;100598.88;4864013;29;20851;-69
2023/05/23 05:12:18;;;;;;;23.70;17.60;;;;;;;19.94;62.01;100594.97;4863379;29;20389;-67
2023/05/23 05:14:46;;;;;;;19.47;15.77;;;;;;;19.90;62.24;100605.31;4864489;29;20218;-66
2023/05/23 05:17:13;;;;;;;17.67;14.83;;;;;;;19.86;62.01;100612.97;4861924;29;20686;-67
2023/05/23 05:19:41;;;;;;;22.40;16.23;;;;;;;19.98;61.39;100617.72;4864727;29;20226;-68
2023/05/23 05:22:09;;;;;;;22.40;15.70;;;;;;;19.92;61.32;100614.00;4863787;29;20242;-69
2023/05/23 05:24:37;;;;;;;22.63;14.57;;;;;;;19.88;61.61;100624.34;4864328;29;20309;-68
2023/05/23 05:27:08;;;;;;;19.87;15.67;;;;;;;19.86;61.88;100628.28;4862189;29;20266;-68
2023/05/23 05:29:36;;;;;;;18.13;14.83;;;;;;;19.85;61.39;100630.16;4864840;29;20782;-67
2023/05/23 05:32:04;;;;;;;19.73;15.30;;;;;;;19.81;61.61;100628.88;4862174;29;20313;-69
2023/05/23 05:34:32;;;;;;;17.60;13.70;;;;;;;19.86;61.40;100636.38;4861742;29;20647;-68
2023/05/23 05:36:59;;;;;;;19.47;15.43;;;;;;;19.78;61.57;100637.38;4863472;29;20345;-68
2023/05/23 05:39:27;;;;;;;19.97;15.27;;;;;;;19.82;61.48;100641.31;4863103;29;20920;-69
2023/05/23 05:41:55;;;;;;;22.10;16.77;;;;;;;19.92;61.57;100640.91;4862991;29;20706;-69
2023/05/23 05:44:25;;;;;;;19.80;16.00;;;;;;;19.91;61.29;100642.78;4860916;29;20223;-68
2023/05/23 05:46:54;;;;;;;21.60;15.93;;;;;;;19.88;61.38;100637.78;4862930;29;20253;-68
2023/05/23 05:49:22;;;;;;;21.57;17.00;;;;;;;19.91;61.39;100645.47;4863962;29;20341;-68
2023/05/23 05:51:50;;;;;;;19.70;16.03;;;;;;;19.90;61.61;100651.06;4864070;29;20214;-69
2023/05/23 05:54:18;;;;;;;20.13;16.60;;;;;;;20.02;60.99;100645.91;4860788;29;20223;-68
2023/05/23 05:56:47;;;;;;;26.00;16.90;;;;;;;20.01;60.95;100655.00;4864641;29;20238;-68
2023/05/23 05:59:15;;;;;;;19.47;16.87;;;;;;;19.99;61.45;100657.06;4864244;29;20286;-66
2023/05/23 06:01:44;;;;;;;21.43;17.10;;;;;;;20.02;61.08;100662.88;4864707;29;20282;-68
2023/05/23 06:04:12;;;;;;;23.10;16.43;;;;;;;19.99;61.02;100663.28;4863549;29;20842;-68
2023/05/23 06:06:40;;;;;;;20.87;17.47;;;;;;;20.01;61.47;100657.69;4865942;29;20225;-68
2023/05/23 06:09:09;;;;;;;22.13;18.60;;;;;;;20.04;61.36;100665.38;4864780;29;20218;-68
2023/05/23 06:11:39;;;;;;;21.63;17.47;;;;;;;20.06;60.95;100664.13;4863907;29;20254;-68
2023/05/23 06:14:08;;;;;;;21.17;17.57;;;;;;;20.12;61.18;100665.19;4864252;29;20251;-69
2023/05/23 06:16:36;;;;;;;21.33;17.43;;;;;;;20.01;61.47;100661.22;4862357;29;20341;-68
2023/05/23 06:19:05;;;;;;;23.27;18.50;;;;;;;20.06;61.34;100665.97;4868315;29;20602;-68
2023/05/23 06:21:33;;;;;;;22.30;17.77;;;;;;;20.15;60.73;100670.13;4862478;29;21576;-68
2023/05/23 06:24:01;;;;;;;22.67;17.80;;;;;;;20.14;61.28;100673.88;4859282;29;20251;-68
2023/05/23 06:26:29;;;;;;;23.97;17.83;;;;;;;20.02;61.55;100670.97;4861847;29;20306;-68
2023/05/23 06:28:56;;;;;;;21.03;16.80;;;;;;;20.01;61.65;100671.16;4863527;29;20660;-67
2023/05/23 06:31:24;;;;;;;19.63;16.67;;;;;;;20.05;61.48;100678.63;4860639;29;20246;-68
2023/05/23 06:33:53;;;;;;;21.40;16.50;;;;;;;20.12;61.25;100679.47;4864398;29;20220;-67
2023/05/23 06:36:22;;;;;;;20.33;16.70;;;;;;;20.11;61.53;100676.97;4860185;29;20269;-66
2023/05/23 06:38:50;;;;;;;18.37;14.97;;;;;;;20.19;60.91;100680.28;4862356;29;20222;-68
2023/05/23 06:41:18;;;;;;;17.17;14.60;;;;;;;20.18;60.92;100694.78;4865448;29;20214;-68
2023/05/23 06:43:45;;;;;;;20.30;15.57;;;;;;;20.17;61.23;100686.91;4862854;29;20222;-68
2023/05/23 06:46:13;;;;;;;18.87;14.20;;;;;;;20.23;61.12;100692.28;4863008;29;20947;-67
2023/05/23 06:48:41;;;;;;;23.60;16.13;;;;;;;20.25;61.17;100697.47;4860733;29;20228;-68
2023/05/23 06:51:09;;;;;;;19.43;15.10;;;;;;;20.20;61.20;100702.66;4861733;29;20225;-67
2023/05/23 06:53:38;;;;;;;18.17;14.37;;;;;;;20.19;61.25;100703.69;4862505;29;20218;-68
2023/05/23 06:56:06;;;;;;;17.27;13.83;;;;;;;20.11;61.43;100703.91;4862670;29;20678;-68
2023/05/23 06:58:34;;;;;;;17.00;13.30;;;;;;;20.13;61.17;100709.91;4864810;29;20299;-66
2023/05/23 07:01:02;;;;;;;21.37;13.03;;;;;;;20.22;60.87;100716.75;4862490;29;20245;-66
2023/05/23 07:03:29;;;;;;;16.40;11.93;;;;;;;20.19;60.71;100717.16;4861411;29;20221;-67
2023/05/23 07:05:57;;;;;;;15.03;12.07;;;;;;;20.19;60.54;100712.59;4865303;29;20592;-67
2023/05/23 07:08:25;;;;;;;15.27;11.87;;;;;;;20.18;60.65;100718.19;4862509;29;20811;-66
2023/05/23 07:10:54;;;;;;;16.43;12.00;;;;;;;20.11;61.11;100725.44;4861121;29;20218;-66
2023/05/23 07:13:22;;;;;;;11.00;9.17;;;;;;;20.13;60.75;100721.50;4866315;29;20264;-67
2023/05/23 07:15:50;;;;;;;11.13;8.40;;;;;;;20.09;60.18;100728.31;4866492;29;20270;-67
2023/05/23 07:18:18;;;;;;;10.07;7.60;;;;;;;20.17;59.13;100730.00;4867213;29;20221;-67
2023/05/23 07:20:45;;;;;;;10.23;7.93;;;;;;;20.16;58.73;100726.47;4863555;29;20579;-68
2023/05/23 07:23:13;;;;;;;11.23;7.80;;;;;;;20.13;58.95;100724.19;4861211;29;20372;-67
2023/05/23 07:25:41;;;;;;;8.93;6.83;;;;;;;20.07;59.02;100725.00;4859650;29;20305;-68
2023/05/23 07:28:29;;;;;;;7.43;6.07;;;;;;;20.21;58.33;100725.88;4862373;29;20234;-68
2023/05/23 07:30:57;;;;;;;7.23;5.67;;;;;;;20.24;57.18;100728.97;4862897;29;20401;-67
2023/05/23 07:33:25;;;;;;;9.13;5.73;;;;;;;20.28;57.04;100735.63;4860905;29;20225;-66
2023/05/23 07:35:53;;;;;;;6.80;5.33;;;;;;;20.25;57.43;100732.47;4861227;29;20214;-67
2023/05/23 07:38:20;;;;;;;6.23;5.43;;;;;;;20.19;57.89;100728.75;4861122;29;21000;-66
2023/05/23 07:40:48;;;;;;;6.93;5.20;;;;;;;20.24;57.66;100736.22;4861672;29;20254;-67
2023/05/23 07:43:35;;;;;;;8.87;5.27;;;;;;;20.14;57.37;100741.19;4863372;29;20373;-67
2023/05/23 07:46:03;;;;;;;6.30;5.20;;;;;;;20.14;57.53;100743.88;4861143;29;20222;-66
2023/05/23 07:48:30;;;;;;;6.97;5.17;;;;;;;20.12;57.74;100738.69;4863225;29;20223;-66
2023/05/23 07:50:58;;;;;;;6.90;5.10;;;;;;;20.14;57.33;100747.38;4867187;29;20245;-66
2023/05/23 07:53:26;;;;;;;7.87;5.47;;;;;;;20.11;57.69;100737.03;4865856;29;20223;-67
2023/05/23 07:55:54;;;;;;;8.87;5.77;;;;;;;20.19;57.03;100739.53;4863070;29;20223;-67
2023/05/23 07:58:22;;;;;;;7.43;5.30;;;;;;;20.16;57.72;100739.94;4865155;29;20321;-67
2023/05/23 08:00:51;;;;;;;7.63;5.50;;;;;;;20.23;56.90;100745.31;4867185;29;20313;-67
2023/05/23 08:03:20;;;;;;;6.70;5.43;;;;;;;20.13;57.80;100744.91;4865167;29;20207;-67
2023/05/23 08:05:47;;;;;;;11.13;6.47;;;;;;;20.22;57.25;100744.53;4865516;29;20211;-66
2023/05/23 08:08:16;;;;;;;6.53;5.43;;;;;;;20.17;57.44;100746.97;4864860;29;20746;-67
2023/05/23 08:10:44;;;;;;;8.90;6.37;;;;;;;20.18;57.66;100750.50;4865803;29;20253;-67
2023/05/23 08:13:12;;;;;;;8.17;5.90;;;;;;;20.23;57.36;100750.69;4864363;29;20317;-68
2023/05/23 08:15:40;;;;;;;8.00;5.83;;;;;;;20.22;57.72;100749.06;4865311;29;20226;-67
2023/05/23 08:18:10;;;;;;;8.37;5.87;;;;;;;20.31;57.38;100737.06;4864833;29;20541;-69
2023/05/23 08:20:37;;;;;;;8.60;5.80;;;;;;;20.41;57.95;100726.72;4864222;29;20677;-68
2023/05/23 08:23:06;;;;;;;8.37;5.53;;;;;;;20.63;57.59;100730.91;4866272;29;20270;-67
2023/05/23 08:25:33;;;;;;;6.17;4.83;;;;;;;20.86;56.98;100735.03;4863463;29;20697;-67
2023/05/23 08:28:01;;;;;;;5.40;4.53;;;;;;;21.14;56.21;100727.53;4865313;29;20242;-70
2023/05/23 08:30:31;;;;;;;8.03;4.83;;;;;;;21.33;55.58;100731.25;4863806;29;20291;-68
2023/05/23 08:33:03;;;;;;;7.00;4.20;;;;;;;21.50;55.15;100728.91;4863120;29;20223;-68
2023/05/23 08:35:35;;;;;;;6.47;4.60;;;;;;;21.70;54.88;100735.88;4865612;29;20298;-67
2023/05/23 08:38:06;;;;;;;6.10;4.37;;;;;;;21.83;54.42;100731.44;4865199;29;20439;-68
2023/05/23 08:40:36;;;;;;;6.40;4.23;;;;;;;21.89;54.07;100736.84;4865004;29;20230;-67
2023/05/23 08:43:04;;;;;;;5.60;3.73;;;;;;;21.84;53.76;100741.22;4864586;29;20279;-67
2023/05/23 08:45:33;;;;;;;7.10;4.07;;;;;;;21.79;53.52;100736.47;4861623;29;20222;-67
2023/05/23 08:48:02;;;;;;;5.90;3.83;;;;;;;21.71;53.77;100740.25;4863811;29;20669;-68
2023/05/23 08:50:30;;;;;;;5.37;3.57;;;;;;;21.76;53.79;100739.59;4863352;29;20233;-68
2023/05/23 08:53:00;;;;;;;4.67;3.53;;;;;;;21.78;53.85;100751.00;4864165;29;20219;-65
2023/05/23 08:55:29;;;;;;;7.63;3.57;;;;;;;21.67;54.37;100746.28;4862487;29;20217;-67
2023/05/23 08:57:59;;;;;;;4.93;3.30;;;;;;;21.58;54.72;100750.25;4855017;29;20266;-68
2023/05/23 09:00:28;;;;;;;5.83;3.80;;;;;;;21.51;54.70;100749.44;4866315;29;20210;-67
2023/05/23 09:02:57;;;;;;;4.97;3.70;;;;;;;21.34;55.01;100758.00;4864040;29;20916;-67
2023/05/23 09:05:26;;;;;;;4.97;3.70;;;;;;;21.24;55.23;100754.09;4865253;29;20621;-67
2023/05/23 09:07:55;;;;;;;6.17;3.13;;;;;;;21.19;55.58;100751.22;4866212;29;20222;-66
2023/05/23 09:10:28;;;;;;;4.37;3.00;;;;;;;21.42;55.59;100753.41;4862303;29;20222;-67
2023/05/23 09:12:57;;;;;;;4.90;2.80;;;;;;;21.69;54.82;100760.38;4864071;29;20666;-66
2023/05/23 09:15:26;;;;;;;6.97;3.07;;;;;;;21.95;54.42;100762.97;4861844;29;20712;-66
2023/05/23 09:17:53;;;;;;;4.77;3.50;;;;;;;22.22;54.35;100746.66;4864121;29;20246;-67
2023/05/23 09:20:22;;;;;;;5.57;3.87;;;;;;;22.43;53.40;100749.81;4863512;29;20226;-67
2023/05/23 09:22:50;;;;;;;4.27;3.17;;;;;;;22.53;53.03;100754.72;4863260;29;20239;-67
2023/05/23 09:25:18;;;;;;;6.73;3.80;;;;;;;22.46;53.31;100748.56;4865705;29;20380;-67
2023/05/23 09:27:53;;;;;;;8.10;3.70;;;;;;;22.27;53.79;100757.63;4864120;29;20626;-67
2023/05/23 09:30:20;;;;;;;7.17;4.10;;;;;;;22.11;53.72;100759.78;4864551;29;20703;-66
2023/05/23 09:32:59;;;;;;;5.50;4.07;;;;;;;21.93;54.30;100759.66;4863685;29;20251;-67
2023/05/23 09:35:31;;;;;;;6.23;3.90;;;;;;;21.80;54.45;100757.03;4863647;29;20288;-66
2023/05/23 09:37:59;;;;;;;5.70;3.67;;;;;;;21.66;54.92;100766.19;4863347;29;20714;-67
2023/05/23 09:40:31;;;;;;;5.90;4.23;;;;;;;21.48;55.30;100758.78;4862925;29;20246;-66
2023/05/23 09:43:04;;;;;;;6.67;4.43;;;;;;;21.35;55.50;100759.66;4861478;29;20253;-67
2023/05/23 09:45:33;;;;;;;8.57;5.00;;;;;;;21.29;56.08;100762.38;4862121;29;20224;-67
2023/05/23 09:48:01;;;;;;;7.30;4.97;;;;;;;21.24;56.09;100763.00;4862343;29;20304;-69
2023/05/23 09:50:32;;;;;;;6.70;4.90;;;;;;;21.28;56.19;100760.72;4861247;29;20914;-69
2023/05/23 09:53:01;;;;;;;7.67;4.80;;;;;;;21.23;56.34;100766.75;4863378;29;20221;-68
2023/05/23 09:55:28;;;;;;;9.10;4.93;;;;;;;21.15;56.25;100758.00;4864478;29;20249;-67
2023/05/23 09:57:59;;;;;;;6.57;5.47;;;;;;;21.18;56.41;100766.56;4860840;29;20342;-66
2023/05/23 10:00:28;;;;;;;12.13;5.80;;;;;;;21.20;56.38;100764.47;4861960;29;20274;-68
2023/05/23 10:03:06;;;;;;;7.43;4.73;;;;;;;21.17;56.41;100759.50;4863006;29;20215;-67
2023/05/23 10:05:38;;;;;;;8.13;5.13;;;;;;;21.09;56.50;100758.88;4861459;29;20317;-67
2023/05/23 10:08:10;;;;;;;6.33;4.53;;;;;;;21.10;56.60;100763.22;4861996;29;20222;-69
2023/05/23 10:11:23;;;;;;;7.87;5.87;;;;;;;21.12;56.37;100766.50;4862218;29;20214;-67
2023/05/23 10:13:52;;;;;;;10.07;4.67;;;;;;;21.20;56.29;100761.75;4861968;29;20214;-67
2023/05/23 10:16:38;;;;;;;9.70;5.00;;;;;;;21.22;56.52;100765.06;4866168;29;20211;-67
2023/05/23 10:19:10;;;;;;;6.43;4.23;;;;;;;21.29;55.91;100763.19;4867856;29;20237;-67
2023/05/23 10:21:44;;;;;;;8.77;4.43;;;;;;;21.28;56.00;100769.66;4866539;29;20313;-66
2023/05/23 10:24:14;;;;;;;7.23;4.63;;;;;;;21.18;56.50;100771.94;4856020;29;20313;-66
2023/05/23 10:26:44;;;;;;;7.10;4.90;;;;;;;21.14;56.41;100780.63;4855793;29;20314;-67
2023/05/23 10:29:12;;;;;;;5.53;4.57;;;;;;;21.19;56.05;100775.47;4853995;29;20214;-67
2023/05/23 10:31:47;;;;;;;5.83;4.40;;;;;;;21.20;56.32;100772.53;4858136;29;20238;-66
2023/05/23 10:34:23;;;;;;;7.23;5.60;;;;;;;21.21;56.69;100776.91;4855201;29;20799;-67
2023/05/23 10:36:59;;;;;;;12.30;8.40;;;;;;;21.28;56.54;100777.75;4852626;29;20254;-66
2023/05/23 10:39:35;;;;;;;12.80;8.23;;;;;;;21.39;56.15;100778.94;4852139;29;20277;-66
2023/05/23 10:42:10;;;;;;;5.40;4.50;;;;;;;21.49;55.82;100770.41;4851415;29;20305;-66
2023/05/23 10:44:37;;;;;;;5.90;4.63;;;;;;;21.49;56.03;100765.84;4852104;29;20651;-67
2023/05/23 10:47:07;;;;;;;7.53;4.80;;;;;;;21.54;55.74;100770.63;4852343;29;20219;-67
2023/05/23 10:49:38;;;;;;;6.23;4.50;;;;;;;21.67;55.56;100775.97;4846215;29;20258;-67
2023/05/23 10:52:07;;;;;;;6.40;4.73;;;;;;;21.82;54.86;100776.50;4852477;29;20226;-66
2023/05/23 10:54:35;;;;;;;8.10;5.13;;;;;;;22.01;54.77;100772.09;4853761;29;20223;-67
2023/05/23 10:57:04;;;;;;;7.10;4.90;;;;;;;22.37;53.93;100772.31;4850154;29;20279;-66
2023/05/23 10:59:32;;;;;;;6.70;4.63;;;;;;;22.69;53.14;100764.19;4851671;29;20725;-67
2023/05/23 11:02:01;;;;;;;7.43;5.50;;;;;;;22.96;51.65;100764.78;4853131;29;20614;-67
2023/05/23 11:04:30;;;;;;;7.20;5.37;;;;;;;22.97;51.53;100761.03;4850720;29;20258;-67
2023/05/23 11:06:58;;;;;;;6.80;5.00;;;;;;;22.81;51.93;100763.28;4852210;29;20214;-68
2023/05/23 11:09:26;;;;;;;7.53;5.43;;;;;;;22.64;52.00;100767.53;4852195;29;20249;-66
2023/05/23 11:11:56;;;;;;;8.13;5.93;;;;;;;22.51;52.32;100773.06;4852797;29;20223;-67
2023/05/23 11:14:53;;;;;;;8.03;6.50;;;;;;;22.40;52.41;100771.88;4851713;29;20298;-68
2023/05/23 11:17:33;;;;;;;9.50;6.50;;;;;;;22.29;52.99;100779.84;4847869;29;20218;-66
2023/05/23 11:20:05;;;;;;;10.30;7.33;;;;;;;22.23;53.55;100788.81;4849990;29;20238;-71
2023/05/23 11:22:34;;;;;;;10.00;6.90;;;;;;;22.18;53.43;100783.22;4852644;29;20238;-66
2023/05/23 11:25:07;;;;;;;9.93;7.63;;;;;;;22.13;53.62;100781.19;4865945;29;20297;-66